• Join FlightAware (Why Join?)
  • Login
  • US Flag 
02:37AM EDT


 

Airport Tracker/Info


-or-


 

Live Flight TrackerFlight Track Log ✈ KAP550 ✈ 14-May-2013 ✈ KMSS - KALB

Flight Track Log - Related Links

Times and Time Zones

All times are in EDT time to prevent confusion due to time zone crossing. See the KAP550 flight status page for this flight to view local times or setup timezone preferences in your user account.

Time Position Orientation Groundspeed Altitude Reporting Facility
EDT Latitude Longitude Course Direction KTS MPH feet Rate Location/Type
07:20AM 44.5767 -74.6958 160° South 151 174 5,600  Level Boston Center
07:21AM 44.5253 -74.6675 159° South 177 204 5,600  Level Boston Center
07:22AM 44.4756 -74.6453 162° South 185 213 5,600  Level Boston Center
07:23AM 44.4261 -74.6172 158° South 185 213 5,600  Level Boston Center
07:24AM 44.3744 -74.5953 163° South 185 213 5,600  Level Boston Center
07:25AM 44.7018 -74.7259 160° South  Level FlightAware Approximate
07:25AM 44.3250 -74.5703 160° South 185 213 5,600  Level Boston Center
07:26AM 44.2775 -74.5453 159° South 185 213 5,600  Level Boston Center
07:27AM 44.2322 -74.5206 159° South 185 213 5,600  Level Boston Center
07:28AM 44.1867 -74.5014 163° South 180 207 5,600  Level Boston Center
07:29AM 44.1433 -74.4797 160° South 180 207 5,600  Level Boston Center
07:30AM 44.0956 -74.4578 162° South 180 207 5,600  Level Boston Center
07:31AM 44.0522 -74.4361 160° South 175 201 5,600  Level Boston Center
07:32AM 44.0089 -74.4144 160° South 175 201 5,600  Level Boston Center
07:33AM 43.9633 -74.3928 161° South 175 201 5,600  Level Boston Center
07:34AM 43.9181 -74.3683 159° South 175 201 5,600  Level Boston Center
07:35AM 43.8808 -74.3497 160° South 175 201 5,600  Level Boston Center
07:36AM 43.8292 -74.3250 161° South 170 196 5,600  Level Boston Center
07:37AM 43.7836 -74.3036 161° South 170 196 5,600  Level Boston Center
07:38AM 43.7381 -74.2792 159° South 165 190 5,600  Level Boston Center
07:39AM 43.6967 -74.2608 162° South 165 190 5,600  Level Boston Center
07:40AM 43.6492 -74.2364 160° South 165 190 5,600  Level Boston Center
07:41AM 43.6036 -74.2178 164° South 165 190 5,600  Level Boston Center
07:42AM 43.5603 -74.1936 158° South 165 190 5,600  Level Boston Center
07:43AM 43.5044 -74.1661 160° South 165 190 5,600  Level Boston Center
07:44AM 43.4589 -74.1450 161° South 165 190 5,600  Level Boston Center
07:45AM 43.4342 -74.1356 164° South 173 199 5,600  Level Boston Center
07:45AM 43.4092 -74.1233 160° South 173 199 5,600  Level Boston Center
07:46AM 43.3658 -74.1050 163° South 172 198 5,600  Level Boston Center
07:47AM 43.3286 -74.0842 158° South 165 190 5,600 -60 Level Boston Center
07:48AM 43.2789 -74.0572 158° South 165 190 5,500  Descending Boston Center
07:49AM 43.2394 -74.0389 161° South 165 190 5,600  Climbing Boston Center
07:50AM 43.1919 -74.0150 160° South 165 190 5,600  Level Boston Center
07:51AM 43.1506 -73.9939 160° South 165 190 5,600  Level Boston Center
07:52AM 43.1008 -73.9700 161° South 165 190 5,600 -300 Level Boston Center
07:53AM 43.0572 -73.9547 166° South 172 198 5,100 -660 Descending Boston Center
07:54AM 43.0033 -73.9278 160° South 188 216 4,300 -720 Descending Boston Center
07:55AM 42.9642 -73.8928 147° Southeast 193 222 3,700 -660 Descending Boston Center
07:55AM 42.9497 -73.8839 156° South 188 216 3,500 -720 Descending Boston Center
07:56AM 42.9147 -73.8547 149° Southeast 193 222 3,000 -720 Descending Boston Center
07:56AM 42.9022 -73.8458 152° Southeast 187 215 2,800 -600 Descending Boston Center
07:57AM 42.8714 -73.8253 154° Southeast 188 216 2,400 -600 Descending Boston Center
07:57AM 42.8528 -73.8164 161° South 186 214 2,200 -780 Descending Boston Center
07:58AM 42.8069 -73.8097 174° South 157 181 1,400 1,740 Descending Boston Center
07:59AM 42.7658 -73.7581 137° Southeast 188 216 5,500 4,680 Climbing Boston Center
08:01AM 42.7491 -73.8020 170° South  Level Estimated
08:08AM 42.7491 -73.8020 170° South  Level Estimated
08:09AM 42.7491 -73.8020 170° South  Level Estimated
08:10AM 42.7491 -73.8020 170° South  Level Estimated
08:11AM 42.7491 -73.8020 170° South  Level Estimated